sensor_id;sensor_type;location;lat;lon;timestamp;pressure;altitude;pressure_sealevel;temperature;humidity
19783;BME280;10051;40.294;-3.754;2023-05-29T00:00:43;93875.53;;;14.43;100.00
19783;BME280;10051;40.294;-3.754;2023-05-29T00:03:10;93891.91;;;14.54;100.00
19783;BME280;10051;40.294;-3.754;2023-05-29T00:05:36;93936.78;;;14.85;100.00
19783;BME280;10051;40.294;-3.754;2023-05-29T00:08:03;93937.84;;;14.84;100.00
19783;BME280;10051;40.294;-3.754;2023-05-29T00:10:30;93931.94;;;14.87;100.00
19783;BME280;10051;40.294;-3.754;2023-05-29T00:12:57;93894.56;;;14.63;100.00
19783;BME280;10051;40.294;-3.754;2023-05-29T00:15:23;93866.66;;;14.39;100.00
19783;BME280;10051;40.294;-3.754;2023-05-29T00:17:51;93929.63;;;14.86;100.00
19783;BME280;10051;40.294;-3.754;2023-05-29T00:20:18;93915.44;;;14.73;100.00
19783;BME280;10051;40.294;-3.754;2023-05-29T00:22:44;93831.81;;;14.19;100.00
19783;BME280;10051;40.294;-3.754;2023-05-29T00:25:09;93929.31;;;14.79;100.00
19783;BME280;10051;40.294;-3.754;2023-05-29T00:27:36;93931.34;;;14.82;100.00
19783;BME280;10051;40.294;-3.754;2023-05-29T00:30:04;93934.13;;;14.85;100.00
19783;BME280;10051;40.294;-3.754;2023-05-29T00:32:31;93928.84;;;14.77;100.00
19783;BME280;10051;40.294;-3.754;2023-05-29T00:34:57;93946.75;;;14.89;100.00
19783;BME280;10051;40.294;-3.754;2023-05-29T00:37:26;93893.28;;;14.60;100.00
19783;BME280;10051;40.294;-3.754;2023-05-29T00:39:53;93945.19;;;14.96;100.00
19783;BME280;10051;40.294;-3.754;2023-05-29T00:42:24;93926.03;;;14.91;100.00
19783;BME280;10051;40.294;-3.754;2023-05-29T00:44:53;93927.44;;;14.97;100.00
19783;BME280;10051;40.294;-3.754;2023-05-29T00:47:26;93885.53;;;14.64;100.00
19783;BME280;10051;40.294;-3.754;2023-05-29T00:49:53;93934.63;;;14.96;100.00
19783;BME280;10051;40.294;-3.754;2023-05-29T00:52:19;93909.38;;;14.81;100.00
19783;BME280;10051;40.294;-3.754;2023-05-29T00:54:45;93890.03;;;14.63;100.00
19783;BME280;10051;40.294;-3.754;2023-05-29T00:57:13;93891.44;;;14.61;100.00
19783;BME280;10051;40.294;-3.754;2023-05-29T00:59:44;93924.94;;;14.83;100.00
19783;BME280;10051;40.294;-3.754;2023-05-29T01:02:15;93859.22;;;14.50;100.00
19783;BME280;10051;40.294;-3.754;2023-05-29T01:04:44;93918.72;;;15.05;100.00
19783;BME280;10051;40.294;-3.754;2023-05-29T01:07:10;93916.06;;;15.05;100.00
19783;BME280;10051;40.294;-3.754;2023-05-29T01:09:41;93879.63;;;14.84;100.00
19783;BME280;10051;40.294;-3.754;2023-05-29T01:12:23;93889.91;;;14.95;100.00
19783;BME280;10051;40.294;-3.754;2023-05-29T01:15:12;93855.53;;;14.77;100.00
19783;BME280;10051;40.294;-3.754;2023-05-29T01:18:06;93898.47;;;15.09;100.00
19783;BME280;10051;40.294;-3.754;2023-05-29T01:20:52;93899.56;;;14.99;100.00
19783;BME280;10051;40.294;-3.754;2023-05-29T01:25:58;93905.78;;;14.95;100.00
19783;BME280;10051;40.294;-3.754;2023-05-29T01:28:33;93847.41;;;14.56;100.00
19783;BME280;10051;40.294;-3.754;2023-05-29T01:31:04;93890.84;;;14.81;100.00
19783;BME280;10051;40.294;-3.754;2023-05-29T01:33:30;93884.63;;;14.95;100.00
19783;BME280;10051;40.294;-3.754;2023-05-29T01:35:59;93861.91;;;14.76;100.00
19783;BME280;10051;40.294;-3.754;2023-05-29T01:38:27;93887.41;;;14.90;100.00
19783;BME280;10051;40.294;-3.754;2023-05-29T01:40:54;93880.59;;;14.71;100.00
19783;BME280;10051;40.294;-3.754;2023-05-29T01:43:25;93889.59;;;14.70;100.00
19783;BME280;10051;40.294;-3.754;2023-05-29T01:45:52;93846.75;;;14.50;100.00
19783;BME280;10051;40.294;-3.754;2023-05-29T01:48:18;93850.66;;;14.62;100.00
19783;BME280;10051;40.294;-3.754;2023-05-29T01:50:45;93825.59;;;14.50;100.00
19783;BME280;10051;40.294;-3.754;2023-05-29T01:53:13;93883.06;;;14.94;100.00
19783;BME280;10051;40.294;-3.754;2023-05-29T01:55:39;93872.44;;;15.02;100.00
19783;BME280;10051;40.294;-3.754;2023-05-29T01:58:06;93872.31;;;14.99;100.00
19783;BME280;10051;40.294;-3.754;2023-05-29T02:00:36;93846.78;;;14.94;100.00
19783;BME280;10051;40.294;-3.754;2023-05-29T02:03:04;93884.00;;;15.15;100.00
19783;BME280;10051;40.294;-3.754;2023-05-29T02:05:30;93856.72;;;15.06;100.00
19783;BME280;10051;40.294;-3.754;2023-05-29T02:07:56;93831.66;;;14.95;100.00
19783;BME280;10051;40.294;-3.754;2023-05-29T02:10:22;93822.34;;;14.80;100.00
19783;BME280;10051;40.294;-3.754;2023-05-29T02:12:48;93747.00;;;14.42;100.00
19783;BME280;10051;40.294;-3.754;2023-05-29T02:15:14;93811.91;;;14.83;100.00
19783;BME280;10051;40.294;-3.754;2023-05-29T02:17:40;93843.19;;;14.99;100.00
19783;BME280;10051;40.294;-3.754;2023-05-29T02:20:07;93857.03;;;15.05;100.00
19783;BME280;10051;40.294;-3.754;2023-05-29T02:22:37;93821.56;;;14.79;100.00
19783;BME280;10051;40.294;-3.754;2023-05-29T02:25:04;93827.97;;;14.78;100.00
19783;BME280;10051;40.294;-3.754;2023-05-29T02:27:30;93770.22;;;14.36;100.00
19783;BME280;10051;40.294;-3.754;2023-05-29T02:30:03;93844.13;;;14.68;100.00
19783;BME280;10051;40.294;-3.754;2023-05-29T02:32:29;93863.28;;;14.74;100.00
19783;BME280;10051;40.294;-3.754;2023-05-29T02:34:59;93867.31;;;14.62;100.00
19783;BME280;10051;40.294;-3.754;2023-05-29T02:37:27;93831.03;;;14.27;100.00
19783;BME280;10051;40.294;-3.754;2023-05-29T02:39:54;93829.31;;;14.23;100.00
19783;BME280;10051;40.294;-3.754;2023-05-29T02:42:20;93858.44;;;14.32;100.00
19783;BME280;10051;40.294;-3.754;2023-05-29T02:44:46;93826.00;;;14.00;100.00
19783;BME280;10051;40.294;-3.754;2023-05-29T02:47:12;93831.16;;;14.13;100.00
19783;BME280;10051;40.294;-3.754;2023-05-29T02:49:38;93870.56;;;14.41;100.00
19783;BME280;10051;40.294;-3.754;2023-05-29T02:52:04;93855.94;;;14.44;100.00
19783;BME280;10051;40.294;-3.754;2023-05-29T02:54:31;93887.84;;;14.56;100.00
19783;BME280;10051;40.294;-3.754;2023-05-29T02:56:57;93888.00;;;14.51;100.00
19783;BME280;10051;40.294;-3.754;2023-05-29T02:59:22;93851.88;;;14.20;100.00
19783;BME280;10051;40.294;-3.754;2023-05-29T03:01:48;93837.38;;;14.00;100.00
19783;BME280;10051;40.294;-3.754;2023-05-29T03:04:17;93884.88;;;14.32;100.00
19783;BME280;10051;40.294;-3.754;2023-05-29T03:06:43;93829.78;;;14.16;100.00
19783;BME280;10051;40.294;-3.754;2023-05-29T03:09:11;93824.00;;;14.14;100.00
19783;BME280;10051;40.294;-3.754;2023-05-29T03:11:38;93843.00;;;14.16;100.00
19783;BME280;10051;40.294;-3.754;2023-05-29T03:14:07;93869.78;;;14.41;100.00
19783;BME280;10051;40.294;-3.754;2023-05-29T03:16:32;93891.09;;;14.53;100.00
19783;BME280;10051;40.294;-3.754;2023-05-29T03:18:59;93829.63;;;14.12;100.00
19783;BME280;10051;40.294;-3.754;2023-05-29T03:21:25;93882.69;;;14.34;100.00
19783;BME280;10051;40.294;-3.754;2023-05-29T03:23:54;93887.34;;;14.37;100.00
19783;BME280;10051;40.294;-3.754;2023-05-29T03:26:20;93880.50;;;14.36;100.00
19783;BME280;10051;40.294;-3.754;2023-05-29T03:28:47;93860.28;;;14.22;100.00
19783;BME280;10051;40.294;-3.754;2023-05-29T03:31:14;93882.38;;;14.35;100.00
19783;BME280;10051;40.294;-3.754;2023-05-29T03:33:41;93842.19;;;14.07;100.00
19783;BME280;10051;40.294;-3.754;2023-05-29T03:36:08;93833.94;;;14.00;100.00
19783;BME280;10051;40.294;-3.754;2023-05-29T03:38:34;93788.31;;;13.67;100.00
19783;BME280;10051;40.294;-3.754;2023-05-29T03:41:00;93844.34;;;14.05;100.00
19783;BME280;10051;40.294;-3.754;2023-05-29T03:43:27;93892.19;;;14.43;100.00
19783;BME280;10051;40.294;-3.754;2023-05-29T03:45:52;93817.78;;;14.01;100.00
19783;BME280;10051;40.294;-3.754;2023-05-29T03:48:18;93876.47;;;14.38;100.00
19783;BME280;10051;40.294;-3.754;2023-05-29T03:50:48;93819.34;;;14.11;100.00
19783;BME280;10051;40.294;-3.754;2023-05-29T03:53:18;93874.63;;;14.48;100.00
19783;BME280;10051;40.294;-3.754;2023-05-29T03:55:44;93881.00;;;14.55;100.00
19783;BME280;10051;40.294;-3.754;2023-05-29T03:58:17;93868.38;;;14.52;100.00
19783;BME280;10051;40.294;-3.754;2023-05-29T04:00:43;93835.72;;;14.31;100.00
19783;BME280;10051;40.294;-3.754;2023-05-29T04:03:09;93794.28;;;14.00;100.00
19783;BME280;10051;40.294;-3.754;2023-05-29T04:05:36;93861.22;;;14.44;100.00
19783;BME280;10051;40.294;-3.754;2023-05-29T04:08:02;93873.22;;;14.50;100.00
19783;BME280;10051;40.294;-3.754;2023-05-29T04:10:30;93804.09;;;14.08;100.00
19783;BME280;10051;40.294;-3.754;2023-05-29T04:13:00;93866.34;;;14.40;100.00
19783;BME280;10051;40.294;-3.754;2023-05-29T04:15:30;93876.47;;;14.47;100.00
19783;BME280;10051;40.294;-3.754;2023-05-29T04:17:59;93904.47;;;14.48;100.00
19783;BME280;10051;40.294;-3.754;2023-05-29T04:20:27;93881.75;;;14.30;100.00
19783;BME280;10051;40.294;-3.754;2023-05-29T04:22:54;93859.44;;;14.04;100.00
19783;BME280;10051;40.294;-3.754;2023-05-29T04:25:21;93799.19;;;13.66;100.00
19783;BME280;10051;40.294;-3.754;2023-05-29T04:27:47;93880.19;;;14.28;100.00
19783;BME280;10051;40.294;-3.754;2023-05-29T04:30:19;93877.41;;;14.34;100.00
19783;BME280;10051;40.294;-3.754;2023-05-29T04:32:45;93906.03;;;14.49;100.00
19783;BME280;10051;40.294;-3.754;2023-05-29T04:35:12;93793.00;;;13.79;100.00
19783;BME280;10051;40.294;-3.754;2023-05-29T04:37:38;93835.63;;;13.95;100.00
19783;BME280;10051;40.294;-3.754;2023-05-29T04:40:05;93911.63;;;14.39;100.00
19783;BME280;10051;40.294;-3.754;2023-05-29T04:42:43;93846.81;;;13.92;100.00
19783;BME280;10051;40.294;-3.754;2023-05-29T04:45:12;93892.34;;;14.30;100.00
19783;BME280;10051;40.294;-3.754;2023-05-29T04:47:38;93868.69;;;14.24;100.00
19783;BME280;10051;40.294;-3.754;2023-05-29T04:50:18;93862.72;;;14.01;100.00
19783;BME280;10051;40.294;-3.754;2023-05-29T04:52:45;93911.78;;;14.34;100.00
19783;BME280;10051;40.294;-3.754;2023-05-29T04:55:14;93881.28;;;14.27;100.00
19783;BME280;10051;40.294;-3.754;2023-05-29T04:57:41;93907.28;;;14.43;100.00
19783;BME280;10051;40.294;-3.754;2023-05-29T05:00:07;93901.34;;;14.28;100.00
19783;BME280;10051;40.294;-3.754;2023-05-29T05:02:46;93873.31;;;14.10;100.00
19783;BME280;10051;40.294;-3.754;2023-05-29T05:05:12;93870.16;;;13.99;100.00
19783;BME280;10051;40.294;-3.754;2023-05-29T05:07:38;93904.56;;;14.17;100.00
19783;BME280;10051;40.294;-3.754;2023-05-29T05:10:04;93930.13;;;14.30;100.00
19783;BME280;10051;40.294;-3.754;2023-05-29T05:12:34;93935.25;;;14.26;100.00
19783;BME280;10051;40.294;-3.754;2023-05-29T05:15:03;93930.56;;;14.23;100.00
19783;BME280;10051;40.294;-3.754;2023-05-29T05:17:29;93937.44;;;14.24;100.00
19783;BME280;10051;40.294;-3.754;2023-05-29T05:19:55;93911.41;;;14.09;100.00
19783;BME280;10051;40.294;-3.754;2023-05-29T05:22:21;93896.56;;;13.90;100.00
19783;BME280;10051;40.294;-3.754;2023-05-29T05:24:47;93892.56;;;14.02;100.00
19783;BME280;10051;40.294;-3.754;2023-05-29T05:27:13;93941.19;;;14.41;100.00
19783;BME280;10051;40.294;-3.754;2023-05-29T05:29:38;93943.06;;;14.40;100.00
19783;BME280;10051;40.294;-3.754;2023-05-29T05:32:05;93946.81;;;14.48;100.00
19783;BME280;10051;40.294;-3.754;2023-05-29T05:34:32;93886.66;;;14.05;100.00
19783;BME280;10051;40.294;-3.754;2023-05-29T05:36:58;93948.66;;;14.39;100.00
19783;BME280;10051;40.294;-3.754;2023-05-29T05:39:25;93891.94;;;14.05;100.00
19783;BME280;10051;40.294;-3.754;2023-05-29T05:41:52;93951.47;;;14.42;100.00
19783;BME280;10051;40.294;-3.754;2023-05-29T05:44:18;93960.34;;;14.47;100.00
19783;BME280;10051;40.294;-3.754;2023-05-29T05:46:47;93947.88;;;14.38;100.00
19783;BME280;10051;40.294;-3.754;2023-05-29T05:49:13;93930.44;;;14.37;100.00
19783;BME280;10051;40.294;-3.754;2023-05-29T05:51:39;93942.00;;;14.50;100.00
19783;BME280;10051;40.294;-3.754;2023-05-29T05:54:05;93951.19;;;14.53;100.00
19783;BME280;10051;40.294;-3.754;2023-05-29T05:56:31;93923.28;;;14.38;100.00
19783;BME280;10051;40.294;-3.754;2023-05-29T05:59:01;93922.81;;;14.36;100.00
19783;BME280;10051;40.294;-3.754;2023-05-29T06:01:28;93908.19;;;14.30;100.00
19783;BME280;10051;40.294;-3.754;2023-05-29T06:03:56;93939.81;;;14.52;100.00
19783;BME280;10051;40.294;-3.754;2023-05-29T06:06:23;93926.09;;;14.41;100.00
19783;BME280;10051;40.294;-3.754;2023-05-29T06:08:50;93939.97;;;14.47;100.00
19783;BME280;10051;40.294;-3.754;2023-05-29T06:11:17;93970.81;;;14.61;100.00
19783;BME280;10051;40.294;-3.754;2023-05-29T06:13:42;93958.81;;;14.63;100.00
19783;BME280;10051;40.294;-3.754;2023-05-29T06:16:08;93907.41;;;14.29;100.00
19783;BME280;10051;40.294;-3.754;2023-05-29T06:18:37;93934.66;;;14.47;100.00
19783;BME280;10051;40.294;-3.754;2023-05-29T06:21:06;93937.16;;;14.52;100.00
19783;BME280;10051;40.294;-3.754;2023-05-29T06:23:32;93960.44;;;14.73;100.00
19783;BME280;10051;40.294;-3.754;2023-05-29T06:25:59;93975.72;;;14.85;100.00
19783;BME280;10051;40.294;-3.754;2023-05-29T06:28:26;93964.94;;;14.81;100.00
19783;BME280;10051;40.294;-3.754;2023-05-29T06:30:52;93930.50;;;14.55;100.00
19783;BME280;10051;40.294;-3.754;2023-05-29T06:33:18;93971.66;;;14.79;100.00
19783;BME280;10051;40.294;-3.754;2023-05-29T06:35:46;93926.13;;;14.50;100.00
19783;BME280;10051;40.294;-3.754;2023-05-29T06:38:12;93945.91;;;14.62;100.00
19783;BME280;10051;40.294;-3.754;2023-05-29T06:40:38;93964.03;;;14.77;100.00
19783;BME280;10051;40.294;-3.754;2023-05-29T06:43:08;93953.88;;;14.79;100.00
19783;BME280;10051;40.294;-3.754;2023-05-29T06:45:35;93971.19;;;15.03;100.00
19783;BME280;10051;40.294;-3.754;2023-05-29T06:48:01;93970.28;;;15.16;100.00
19783;BME280;10051;40.294;-3.754;2023-05-29T06:50:26;93969.81;;;15.14;100.00
19783;BME280;10051;40.294;-3.754;2023-05-29T06:52:53;93956.09;;;15.12;100.00
19783;BME280;10051;40.294;-3.754;2023-05-29T06:55:24;93960.78;;;15.24;100.00
19783;BME280;10051;40.294;-3.754;2023-05-29T06:57:52;93940.81;;;15.27;100.00
19783;BME280;10051;40.294;-3.754;2023-05-29T07:00:18;93944.72;;;15.21;100.00
19783;BME280;10051;40.294;-3.754;2023-05-29T07:02:44;93946.75;;;15.15;100.00
19783;BME280;10051;40.294;-3.754;2023-05-29T07:05:10;93972.78;;;15.22;100.00
19783;BME280;10051;40.294;-3.754;2023-05-29T07:07:37;93976.19;;;15.31;100.00
19783;BME280;10051;40.294;-3.754;2023-05-29T07:10:06;93981.16;;;15.41;100.00
19783;BME280;10051;40.294;-3.754;2023-05-29T07:12:34;93918.56;;;15.10;100.00
19783;BME280;10051;40.294;-3.754;2023-05-29T07:15:00;93977.88;;;15.62;100.00
19783;BME280;10051;40.294;-3.754;2023-05-29T07:17:29;93923.56;;;15.21;100.00
19783;BME280;10051;40.294;-3.754;2023-05-29T07:19:54;93973.81;;;15.47;100.00
19783;BME280;10051;40.294;-3.754;2023-05-29T07:22:24;93937.69;;;15.25;100.00
19783;BME280;10051;40.294;-3.754;2023-05-29T07:24:53;93950.31;;;15.37;100.00
19783;BME280;10051;40.294;-3.754;2023-05-29T07:27:19;93978.97;;;15.61;100.00
19783;BME280;10051;40.294;-3.754;2023-05-29T07:29:44;93959.03;;;15.55;100.00
19783;BME280;10051;40.294;-3.754;2023-05-29T07:32:10;94000.44;;;15.86;100.00
19783;BME280;10051;40.294;-3.754;2023-05-29T07:34:36;93992.00;;;15.84;100.00
19783;BME280;10051;40.294;-3.754;2023-05-29T07:37:04;93994.66;;;15.93;100.00
19783;BME280;10051;40.294;-3.754;2023-05-29T07:39:33;93969.75;;;15.76;100.00
19783;BME280;10051;40.294;-3.754;2023-05-29T07:42:01;93987.03;;;15.91;100.00
19783;BME280;10051;40.294;-3.754;2023-05-29T07:44:26;93988.13;;;15.90;100.00
19783;BME280;10051;40.294;-3.754;2023-05-29T07:46:52;93963.34;;;15.77;100.00
19783;BME280;10051;40.294;-3.754;2023-05-29T07:49:19;94002.16;;;15.99;100.00
19783;BME280;10051;40.294;-3.754;2023-05-29T07:51:45;93997.16;;;16.07;100.00
19783;BME280;10051;40.294;-3.754;2023-05-29T07:54:11;93995.22;;;16.16;100.00
19783;BME280;10051;40.294;-3.754;2023-05-29T07:56:37;93995.66;;;16.27;100.00
19783;BME280;10051;40.294;-3.754;2023-05-29T07:59:04;93971.34;;;16.16;100.00
19783;BME280;10051;40.294;-3.754;2023-05-29T08:01:30;94002.50;;;16.37;100.00
19783;BME280;10051;40.294;-3.754;2023-05-29T08:03:59;93951.22;;;16.15;100.00
19783;BME280;10051;40.294;-3.754;2023-05-29T08:06:25;93918.88;;;15.83;100.00
19783;BME280;10051;40.294;-3.754;2023-05-29T08:08:51;93999.31;;;16.43;100.00
19783;BME280;10051;40.294;-3.754;2023-05-29T08:11:18;93980.44;;;16.45;100.00
19783;BME280;10051;40.294;-3.754;2023-05-29T08:13:44;93992.06;;;16.61;99.67
19783;BME280;10051;40.294;-3.754;2023-05-29T08:16:09;94000.47;;;16.63;100.00
19783;BME280;10051;40.294;-3.754;2023-05-29T08:18:35;93907.47;;;16.00;100.00
19783;BME280;10051;40.294;-3.754;2023-05-29T08:21:02;93996.72;;;16.64;100.00
19783;BME280;10051;40.294;-3.754;2023-05-29T08:23:27;94010.63;;;16.61;100.00
19783;BME280;10051;40.294;-3.754;2023-05-29T08:25:53;94004.88;;;16.59;100.00
19783;BME280;10051;40.294;-3.754;2023-05-29T08:28:20;93985.53;;;16.59;100.00
19783;BME280;10051;40.294;-3.754;2023-05-29T08:30:46;93996.53;;;16.70;100.00
19783;BME280;10051;40.294;-3.754;2023-05-29T08:33:12;94005.97;;;16.88;98.84
19783;BME280;10051;40.294;-3.754;2023-05-29T08:35:42;93973.97;;;16.85;99.11
19783;BME280;10051;40.294;-3.754;2023-05-29T08:38:07;93977.41;;;16.85;98.47
19783;BME280;10051;40.294;-3.754;2023-05-29T08:40:33;93983.94;;;16.88;100.00
19783;BME280;10051;40.294;-3.754;2023-05-29T08:43:22;94006.28;;;17.17;100.00
19783;BME280;10051;40.294;-3.754;2023-05-29T08:45:54;93993.19;;;17.12;97.44
19783;BME280;10051;40.294;-3.754;2023-05-29T08:48:24;94013.53;;;17.29;97.61
19783;BME280;10051;40.294;-3.754;2023-05-29T08:50:57;94002.66;;;17.21;96.29
19783;BME280;10051;40.294;-3.754;2023-05-29T08:53:24;93985.94;;;17.21;96.25
19783;BME280;10051;40.294;-3.754;2023-05-29T08:55:51;94006.78;;;17.31;93.86
19783;BME280;10051;40.294;-3.754;2023-05-29T08:58:21;93990.28;;;17.26;92.65
19783;BME280;10051;40.294;-3.754;2023-05-29T09:00:48;93978.28;;;17.19;91.54
19783;BME280;10051;40.294;-3.754;2023-05-29T09:03:14;93982.19;;;17.22;91.10
19783;BME280;10051;40.294;-3.754;2023-05-29T09:05:40;93999.63;;;17.32;92.99
19783;BME280;10051;40.294;-3.754;2023-05-29T09:08:08;94010.69;;;17.34;89.65
19783;BME280;10051;40.294;-3.754;2023-05-29T09:10:34;94000.06;;;17.34;88.21
19783;BME280;10051;40.294;-3.754;2023-05-29T09:13:00;93968.84;;;17.09;86.77
19783;BME280;10051;40.294;-3.754;2023-05-29T09:15:26;94008.75;;;17.43;86.55
19783;BME280;10051;40.294;-3.754;2023-05-29T09:17:53;93982.69;;;17.36;87.03
19783;BME280;10051;40.294;-3.754;2023-05-29T09:20:21;94028.31;;;17.60;86.66
19783;BME280;10051;40.294;-3.754;2023-05-29T09:22:58;93996.44;;;17.38;85.42
19783;BME280;10051;40.294;-3.754;2023-05-29T09:25:25;94013.91;;;17.61;85.42
19783;BME280;10051;40.294;-3.754;2023-05-29T09:28:04;94027.38;;;17.77;84.19
19783;BME280;10051;40.294;-3.754;2023-05-29T09:30:41;93988.63;;;17.54;85.77
19783;BME280;10051;40.294;-3.754;2023-05-29T09:33:09;93978.59;;;17.60;85.06
19783;BME280;10051;40.294;-3.754;2023-05-29T09:35:40;93974.03;;;17.61;85.38
19783;BME280;10051;40.294;-3.754;2023-05-29T09:38:11;94014.88;;;17.90;85.26
19783;BME280;10051;40.294;-3.754;2023-05-29T09:40:38;93977.94;;;17.76;83.30
19783;BME280;10051;40.294;-3.754;2023-05-29T09:43:18;93997.47;;;18.38;81.42
19783;BME280;10051;40.294;-3.754;2023-05-29T09:45:48;93935.94;;;18.15;80.11
19783;BME280;10051;40.294;-3.754;2023-05-29T09:48:22;93964.91;;;18.29;77.04
19783;BME280;10051;40.294;-3.754;2023-05-29T09:50:49;94017.25;;;18.62;78.76
19783;BME280;10051;40.294;-3.754;2023-05-29T09:53:21;93956.69;;;18.22;76.52
19783;BME280;10051;40.294;-3.754;2023-05-29T09:55:54;94018.47;;;18.77;77.93
19783;BME280;10051;40.294;-3.754;2023-05-29T09:58:24;94017.66;;;18.89;77.67
19783;BME280;10051;40.294;-3.754;2023-05-29T10:00:52;94026.31;;;18.86;73.69
19783;BME280;10051;40.294;-3.754;2023-05-29T10:03:18;94021.22;;;18.93;73.08
19783;BME280;10051;40.294;-3.754;2023-05-29T10:05:50;94011.13;;;18.99;72.81
19783;BME280;10051;40.294;-3.754;2023-05-29T10:08:19;94023.16;;;19.34;72.16
19783;BME280;10051;40.294;-3.754;2023-05-29T10:10:48;93992.88;;;19.26;70.63
19783;BME280;10051;40.294;-3.754;2023-05-29T10:13:20;94026.38;;;19.68;70.56
19783;BME280;10051;40.294;-3.754;2023-05-29T10:15:54;93971.66;;;19.58;69.22
19783;BME280;10051;40.294;-3.754;2023-05-29T10:18:25;94021.38;;;20.07;67.94
19783;BME280;10051;40.294;-3.754;2023-05-29T10:20:52;93979.25;;;20.16;69.47
19783;BME280;10051;40.294;-3.754;2023-05-29T10:23:23;93977.56;;;20.24;63.38
19783;BME280;10051;40.294;-3.754;2023-05-29T10:25:53;94032.75;;;20.68;62.38
19783;BME280;10051;40.294;-3.754;2023-05-29T10:28:22;93959.13;;;20.35;62.19
19783;BME280;10051;40.294;-3.754;2023-05-29T10:30:54;94011.06;;;20.86;60.21
19783;BME280;10051;40.294;-3.754;2023-05-29T10:33:33;94024.97;;;21.11;56.74
19783;BME280;10051;40.294;-3.754;2023-05-29T10:38:30;94008.28;;;20.66;62.62
19783;BME280;10051;40.294;-3.754;2023-05-29T10:43:58;93940.09;;;20.20;62.50
19783;BME280;10051;40.294;-3.754;2023-05-29T10:49:32;93974.50;;;20.58;62.44
19783;BME280;10051;40.294;-3.754;2023-05-29T10:51:59;93964.22;;;20.76;59.89
19783;BME280;10051;40.294;-3.754;2023-05-29T10:54:26;94013.38;;;21.23;59.25
19783;BME280;10051;40.294;-3.754;2023-05-29T10:56:55;93954.41;;;20.96;56.65
19783;BME280;10051;40.294;-3.754;2023-05-29T10:59:21;93995.44;;;21.43;58.35
19783;BME280;10051;40.294;-3.754;2023-05-29T11:01:52;93939.00;;;21.09;56.32
19783;BME280;10051;40.294;-3.754;2023-05-29T11:06:47;93967.28;;;21.30;56.19
19783;BME280;10051;40.294;-3.754;2023-05-29T11:09:37;93995.94;;;21.49;57.79
19783;BME280;10051;40.294;-3.754;2023-05-29T11:12:16;93991.44;;;21.33;56.85
19783;BME280;10051;40.294;-3.754;2023-05-29T11:15:09;93898.50;;;20.71;57.69
19783;BME280;10051;40.294;-3.754;2023-05-29T11:17:45;93854.47;;;20.45;56.80
19783;BME280;10051;40.294;-3.754;2023-05-29T11:20:52;93977.28;;;21.52;54.25
19783;BME280;10051;40.294;-3.754;2023-05-29T11:23:16;93939.63;;;21.42;54.06
19783;BME280;10051;40.294;-3.754;2023-05-29T11:25:46;93931.03;;;21.52;54.61
19783;BME280;10051;40.294;-3.754;2023-05-29T11:28:15;93925.75;;;21.75;54.92
19783;BME280;10051;40.294;-3.754;2023-05-29T11:30:47;93968.53;;;22.18;52.49
19783;BME280;10051;40.294;-3.754;2023-05-29T11:33:22;93916.59;;;21.99;53.12
19783;BME280;10051;40.294;-3.754;2023-05-29T11:35:55;93939.38;;;22.13;52.12
19783;BME280;10051;40.294;-3.754;2023-05-29T11:38:22;93935.03;;;22.05;52.45
19783;BME280;10051;40.294;-3.754;2023-05-29T11:40:48;93964.94;;;22.34;53.23
19783;BME280;10051;40.294;-3.754;2023-05-29T11:43:14;93957.28;;;22.32;50.63
19783;BME280;10051;40.294;-3.754;2023-05-29T11:45:40;93921.41;;;21.90;52.71
19783;BME280;10051;40.294;-3.754;2023-05-29T11:48:06;93976.44;;;22.34;52.95
19783;BME280;10051;40.294;-3.754;2023-05-29T11:50:33;93969.13;;;22.54;51.83
19783;BME280;10051;40.294;-3.754;2023-05-29T11:52:59;93964.47;;;22.48;52.06
19783;BME280;10051;40.294;-3.754;2023-05-29T11:55:27;93911.78;;;22.09;53.36
19783;BME280;10051;40.294;-3.754;2023-05-29T11:57:58;93956.63;;;22.39;49.87
19783;BME280;10051;40.294;-3.754;2023-05-29T12:00:25;93916.06;;;22.13;52.21
19783;BME280;10051;40.294;-3.754;2023-05-29T12:02:51;93947.34;;;22.33;49.52
19783;BME280;10051;40.294;-3.754;2023-05-29T12:05:18;93908.16;;;21.97;49.71
19783;BME280;10051;40.294;-3.754;2023-05-29T12:07:52;93920.66;;;22.13;50.57
19783;BME280;10051;40.294;-3.754;2023-05-29T12:10:20;93930.66;;;22.43;51.17
19783;BME280;10051;40.294;-3.754;2023-05-29T12:12:58;93875.31;;;22.01;50.44
19783;BME280;10051;40.294;-3.754;2023-05-29T12:15:24;93895.44;;;22.14;51.04
19783;BME280;10051;40.294;-3.754;2023-05-29T12:17:58;93934.13;;;22.67;51.66
19783;BME280;10051;40.294;-3.754;2023-05-29T12:20:26;93917.25;;;22.66;49.35
19783;BME280;10051;40.294;-3.754;2023-05-29T12:22:59;93885.00;;;22.59;51.13
19783;BME280;10051;40.294;-3.754;2023-05-29T12:25:27;93926.84;;;22.94;49.47
19783;BME280;10051;40.294;-3.754;2023-05-29T12:27:55;93892.34;;;22.93;50.23
19783;BME280;10051;40.294;-3.754;2023-05-29T12:30:24;93928.63;;;23.17;49.82
19783;BME280;10051;40.294;-3.754;2023-05-29T12:32:52;93902.75;;;22.98;48.12
19783;BME280;10051;40.294;-3.754;2023-05-29T12:35:27;93911.78;;;23.16;48.86
19783;BME280;10051;40.294;-3.754;2023-05-29T12:38:01;93879.84;;;22.73;47.78
19783;BME280;10051;40.294;-3.754;2023-05-29T12:40:29;93894.81;;;23.09;49.09
19783;BME280;10051;40.294;-3.754;2023-05-29T12:42:59;93895.84;;;23.27;49.02
19783;BME280;10051;40.294;-3.754;2023-05-29T12:45:30;93858.16;;;23.16;49.93
19783;BME280;10051;40.294;-3.754;2023-05-29T12:48:05;93853.56;;;23.17;48.49
19783;BME280;10051;40.294;-3.754;2023-05-29T12:53:09;93870.13;;;23.60;48.39
19783;BME280;10051;40.294;-3.754;2023-05-29T12:55:37;93880.59;;;23.73;48.11
19783;BME280;10051;40.294;-3.754;2023-05-29T12:58:08;93836.34;;;23.56;48.03
19783;BME280;10051;40.294;-3.754;2023-05-29T13:00:35;93873.75;;;23.41;47.30
19783;BME280;10051;40.294;-3.754;2023-05-29T13:03:08;93835.72;;;22.98;48.87
19783;BME280;10051;40.294;-3.754;2023-05-29T13:05:56;93871.41;;;23.06;47.82